Terminal Aerodrome Forecast
Issued by NWS Albany, NY

Current Version | Previous Version | Text Only | Print | Product List | Glossary On
Versions: 1 2 3 4 5 6 7 8 9 10 11 12 13 14 15 16 17 18 19 20 21 22 23 24 25
000
FTUS41 KALY 042332
TAFGFL
TAF
KGFL 042332Z 0500/0524 25006KT P6SM OVC040
     FM050600 32007KT P6SM SCT040 OVC120
     FM051400 36009KT P6SM SCT050 OVC120=

USA.gov is the U.S. government's official web portal to all federal, state and local government web resources and services.